createdAt,value
2019-02-05T00:02:11.376Z,32.43
2019-02-05T00:04:42.652Z,31.73
2019-02-05T00:07:13.206Z,30.27
2019-02-05T00:09:43.675Z,30.47
2019-02-05T00:12:14.187Z,29.80
2019-02-05T00:14:45.164Z,32.27
2019-02-05T00:17:18.964Z,28.80
2019-02-05T00:19:49.778Z,25.43
2019-02-05T00:22:20.146Z,27.33
2019-02-05T00:24:50.646Z,26.47
2019-02-05T00:27:21.171Z,25.90
2019-02-05T00:29:51.540Z,21.53
2019-02-05T00:32:22.272Z,24.30
2019-02-05T00:34:52.999Z,22.87
2019-02-05T00:37:23.745Z,22.33
2019-02-05T00:39:54.413Z,20.17
2019-02-05T00:42:24.946Z,19.13
2019-02-05T00:44:55.528Z,17.87
2019-02-05T00:47:26.128Z,17.70
2019-02-05T00:49:57.028Z,17.67
2019-02-05T00:52:27.444Z,16.93
2019-02-05T00:54:57.909Z,18.30
2019-02-05T00:57:28.347Z,16.93
2019-02-05T00:59:58.897Z,15.33
2019-02-05T01:02:30.264Z,14.07
2019-02-05T01:05:00.960Z,12.13
2019-02-05T01:07:31.514Z,14.00
2019-02-05T01:10:02.095Z,12.70
2019-02-05T01:12:33.525Z,13.43
2019-02-05T01:15:07.577Z,13.03
2019-02-05T01:17:38.019Z,11.47
2019-02-05T01:20:11.379Z,11.57
2019-02-05T01:22:45.009Z,11.37
2019-02-05T01:25:16.208Z,11.37
2019-02-05T01:27:48.007Z,12.20
2019-02-05T01:30:26.010Z,11.03
2019-02-05T01:32:56.885Z,11.40
2019-02-05T01:35:27.513Z,11.73
2019-02-05T01:37:58.140Z,10.70
2019-02-05T01:40:29.227Z,10.43
2019-02-05T01:42:59.804Z,11.10
2019-02-05T01:45:33.363Z,10.83
2019-02-05T01:48:03.819Z,10.53
2019-02-05T01:50:34.538Z,10.00
2019-02-05T01:53:05.430Z,10.60
2019-02-05T01:55:35.802Z,10.70
2019-02-05T01:58:06.136Z,10.90
2019-02-05T02:00:38.979Z,11.33
2019-02-05T02:03:09.598Z,10.23
2019-02-05T02:05:40.504Z,10.17
2019-02-05T02:08:11.975Z,7.93
2019-02-05T02:10:42.461Z,9.83
2019-02-05T02:13:13.042Z,8.97
2019-02-05T02:15:43.533Z,10.00
2019-02-05T02:18:14.192Z,9.37
2019-02-05T02:20:45.055Z,9.93
2019-02-05T02:23:15.436Z,7.40
2019-02-05T02:25:45.915Z,9.70
2019-02-05T02:28:17.346Z,9.50
2019-02-05T02:30:47.836Z,9.60
2019-02-05T02:33:18.945Z,10.10
2019-02-05T02:35:49.635Z,9.60
2019-02-05T02:38:20.209Z,10.00
2019-02-05T02:40:50.892Z,9.83
2019-02-05T02:43:21.496Z,9.43
2019-02-05T02:45:54.122Z,10.73
2019-02-05T02:48:24.999Z,9.37
2019-02-05T02:50:55.632Z,10.17
2019-02-05T02:53:28.696Z,10.20
2019-02-05T02:56:01.844Z,10.03
2019-02-05T02:58:32.889Z,9.97
2019-02-05T03:03:59.980Z,9.73
2019-02-05T03:06:30.486Z,7.53
2019-02-05T03:09:01.036Z,8.83
2019-02-05T03:11:31.540Z,8.10
2019-02-05T03:14:01.957Z,8.13
2019-02-05T03:16:32.313Z,8.10
2019-02-05T03:19:02.802Z,8.00
2019-02-05T03:21:33.252Z,7.80
2019-02-05T03:24:04.396Z,7.80
2019-02-05T03:26:34.763Z,8.60
2019-02-05T03:29:05.520Z,8.27
2019-02-05T03:31:35.935Z,7.97
2019-02-05T03:34:06.468Z,8.53
2019-02-05T03:36:36.940Z,7.60
2019-02-05T03:39:08.316Z,6.53
2019-02-05T03:41:38.680Z,8.13
2019-02-05T03:44:09.186Z,8.10
2019-02-05T03:46:39.644Z,7.67
2019-02-05T03:49:10.342Z,9.10
2019-02-05T03:52:04.430Z,8.30
2019-02-05T03:55:12.489Z,6.73
2019-02-05T03:58:37.331Z,7.70
2019-02-05T04:01:47.101Z,8.53
2019-02-05T04:05:02.600Z,8.43
2019-02-05T04:08:14.360Z,8.37
2019-02-05T04:11:49.828Z,6.67
2019-02-05T04:15:03.964Z,5.90
2019-02-05T04:18:24.143Z,6.03
2019-02-05T04:21:38.140Z,5.53
2019-02-05T04:24:52.639Z,5.60
2019-02-05T04:27:47.464Z,5.73
2019-02-05T04:30:49.784Z,4.60
2019-02-05T04:33:50.574Z,7.58
2019-02-05T04:36:42.294Z,4.93
2019-02-05T04:39:45.314Z,4.40
2019-02-05T04:42:51.748Z,5.23
2019-02-05T04:46:10.861Z,4.73
2019-02-05T04:49:24.670Z,4.50
2019-02-05T04:52:43.641Z,3.40
2019-02-05T04:56:00.723Z,3.40
2019-02-05T04:58:57.907Z,3.83
2019-02-05T05:02:19.856Z,4.30
2019-02-05T05:05:15.660Z,4.90
2019-02-05T05:08:42.258Z,3.10
2019-02-05T05:11:12.788Z,4.47
2019-02-05T05:13:43.316Z,3.77
2019-02-05T05:16:13.938Z,3.70
2019-02-05T05:18:44.524Z,4.87
2019-02-05T05:21:14.992Z,4.07
2019-02-05T05:23:45.469Z,3.57
2019-02-05T05:26:16.311Z,3.57
2019-02-05T05:28:46.732Z,3.80
2019-02-05T05:31:17.392Z,3.17
2019-02-05T05:33:47.794Z,4.50
2019-02-05T05:36:18.396Z,4.70
2019-02-05T05:38:48.840Z,5.43
2019-02-05T05:41:19.679Z,5.17
2019-02-05T05:43:50.054Z,4.73
2019-02-05T05:46:20.539Z,4.20
2019-02-05T05:48:50.885Z,4.70
2019-02-05T05:51:23.238Z,4.13
2019-02-05T05:54:16.484Z,4.20
2019-02-05T05:56:46.923Z,4.13
2019-02-05T05:59:17.276Z,3.57
2019-02-05T06:01:47.655Z,4.27
2019-02-05T06:04:18.188Z,3.77
2019-02-05T06:06:48.732Z,3.37
2019-02-05T06:09:19.058Z,2.57
2019-02-05T06:11:49.564Z,3.30
2019-02-05T06:14:19.876Z,3.87
2019-02-05T06:16:50.240Z,3.63
2019-02-05T06:19:20.633Z,4.47
2019-02-05T06:21:50.952Z,3.80
2019-02-05T06:24:21.299Z,3.57
2019-02-05T06:26:51.663Z,3.13
2019-02-05T06:29:22.126Z,3.10
2019-02-05T06:31:52.976Z,3.10
2019-02-05T06:34:23.748Z,3.03
2019-02-05T06:36:54.205Z,2.97
2019-02-05T06:39:24.476Z,2.20
2019-02-05T06:41:55.025Z,3.13
2019-02-05T06:44:25.532Z,3.00
2019-02-05T06:46:56.033Z,3.30
2019-02-05T06:49:26.809Z,2.80
2019-02-05T06:51:57.274Z,1.73
2019-02-05T06:54:27.775Z,1.90
2019-02-05T06:56:58.186Z,2.33
2019-02-05T06:59:28.776Z,1.80
2019-02-05T07:01:59.292Z,1.47
2019-02-05T07:04:29.843Z,2.07
2019-02-05T07:07:00.515Z,1.67
2019-02-05T07:09:30.894Z,2.07
2019-02-05T07:12:02.020Z,1.80
2019-02-05T07:14:32.600Z,2.07
2019-02-05T07:17:03.244Z,2.73
2019-02-05T07:19:33.745Z,1.27
2019-02-05T07:22:04.714Z,1.87
2019-02-05T07:24:35.180Z,1.47
2019-02-05T07:27:06.041Z,1.70
2019-02-05T07:29:36.596Z,1.60
2019-02-05T07:32:07.238Z,0.80
2019-02-05T07:34:37.626Z,0.80
2019-02-05T07:37:08.811Z,0.50
2019-02-05T07:39:39.152Z,0.70
2019-02-05T07:42:09.749Z,0.73
2019-02-05T07:44:40.276Z,0.50
2019-02-05T07:47:10.648Z,0.50
2019-02-05T07:49:41.197Z,0.60
2019-02-05T07:52:11.773Z,0.73
2019-02-05T07:54:42.266Z,0.70
2019-02-05T07:57:12.644Z,0.70
2019-02-05T07:59:43.084Z,0.97
2019-02-05T08:02:13.488Z,0.70
2019-02-05T08:04:44.132Z,0.97
2019-02-05T08:07:14.972Z,0.80
2019-02-05T08:09:45.601Z,1.27
2019-02-05T08:12:16.260Z,1.03
2019-02-05T08:14:46.900Z,1.60
2019-02-05T08:17:17.412Z,1.30
2019-02-05T08:19:47.798Z,2.00
2019-02-05T08:22:18.305Z,1.70
2019-02-05T08:24:48.900Z,1.93
2019-02-05T08:27:19.259Z,1.90
2019-02-05T08:29:49.803Z,2.13
2019-02-05T08:32:20.144Z,1.90
2019-02-05T08:34:50.589Z,1.83
2019-02-05T08:37:21.152Z,1.67
2019-02-05T08:39:51.928Z,1.83
2019-02-05T08:42:22.280Z,2.30
2019-02-05T08:44:53.241Z,1.30
2019-02-05T08:47:23.556Z,1.73
2019-02-05T08:49:54.180Z,2.03
2019-02-05T08:52:24.752Z,1.90
2019-02-05T08:54:55.279Z,1.50
2019-02-05T08:57:25.768Z,1.60
2019-02-05T08:59:56.312Z,1.30
2019-02-05T09:02:26.840Z,1.63
2019-02-05T09:04:57.169Z,1.57
2019-02-05T09:07:28.324Z,1.97
2019-02-05T09:09:58.902Z,2.33
2019-02-05T09:12:29.412Z,1.37
2019-02-05T09:14:59.936Z,1.17
2019-02-05T09:17:30.368Z,1.03
2019-02-05T09:20:00.772Z,1.10
2019-02-05T09:22:31.432Z,1.43
2019-02-05T09:25:01.996Z,1.60
2019-02-05T09:27:32.628Z,1.37
2019-02-05T09:30:03.055Z,1.30
2019-02-05T09:32:35.125Z,1.43
2019-02-05T09:35:06.675Z,1.17
2019-02-05T09:37:37.027Z,1.30
2019-02-05T09:40:23.576Z,1.30
2019-02-05T09:42:54.104Z,1.30
2019-02-05T09:45:25.713Z,1.00
2019-02-05T09:48:02.072Z,1.37
2019-02-05T09:50:44.244Z,1.10
2019-02-05T09:53:06.040Z,1.10
2019-02-05T09:55:36.668Z,1.00
2019-02-05T09:58:09.392Z,1.20
2019-02-05T10:00:42.013Z,1.10
2019-02-05T10:03:12.581Z,0.90
2019-02-05T10:05:43.351Z,1.30
2019-02-05T10:08:14.240Z,0.87
2019-02-05T10:10:47.253Z,0.83
2019-02-05T10:13:17.605Z,0.87
2019-02-05T10:15:48.048Z,0.70
2019-02-05T10:18:18.384Z,1.00
2019-02-05T10:20:50.076Z,0.80
2019-02-05T10:23:20.644Z,0.93
2019-02-05T10:25:52.884Z,1.20
2019-02-05T10:28:23.982Z,1.00
2019-02-05T10:31:01.636Z,0.80
2019-02-05T10:33:31.818Z,1.23
2019-02-05T10:36:02.148Z,1.20
2019-02-05T10:38:32.668Z,1.33
2019-02-05T10:41:04.165Z,1.17
2019-02-05T10:43:34.846Z,1.33
2019-02-05T10:46:06.635Z,1.37
2019-02-05T10:48:37.207Z,1.80
2019-02-05T10:51:07.676Z,1.27
2019-02-05T10:53:38.000Z,0.90
2019-02-05T10:56:08.508Z,1.23
2019-02-05T10:58:40.475Z,1.07
2019-02-05T11:01:10.991Z,1.03
2019-02-05T11:03:42.588Z,0.90
2019-02-05T11:06:12.976Z,0.90
2019-02-05T11:08:43.548Z,1.20
2019-02-05T11:11:14.368Z,1.00
2019-02-05T11:13:45.801Z,1.43
2019-02-05T11:16:17.728Z,0.97
2019-02-05T11:18:48.256Z,1.20
2019-02-05T11:21:21.770Z,0.90
2019-02-05T11:23:52.283Z,0.90
2019-02-05T11:26:22.780Z,0.90
2019-02-05T11:28:53.483Z,0.73
2019-02-05T11:31:23.932Z,0.80
2019-02-05T11:33:54.248Z,0.90
2019-02-05T11:36:24.920Z,0.70
2019-02-05T11:38:55.386Z,0.50
2019-02-05T11:41:25.995Z,0.90
2019-02-05T11:43:56.413Z,0.80
2019-02-05T11:46:26.941Z,0.80
2019-02-05T11:48:57.527Z,1.00
2019-02-05T11:51:31.940Z,0.77
2019-02-05T11:54:02.818Z,0.90
2019-02-05T11:56:33.276Z,0.90
2019-02-05T11:59:03.840Z,0.80
2019-02-05T12:01:39.161Z,0.80
2019-02-05T12:04:07.796Z,0.80
2019-02-05T12:06:39.321Z,0.90
2019-02-05T12:09:28.147Z,0.90
2019-02-05T12:11:58.467Z,1.10
2019-02-05T12:14:28.948Z,1.23
2019-02-05T12:16:59.271Z,1.07
2019-02-05T12:19:29.751Z,1.20
2019-02-05T12:22:00.135Z,1.23
2019-02-05T12:24:30.611Z,1.63
2019-02-05T12:27:00.988Z,1.30
2019-02-05T12:29:31.351Z,1.67
2019-02-05T12:32:01.920Z,1.60
2019-02-05T12:34:32.438Z,2.10
2019-02-05T12:37:03.159Z,1.70
2019-02-05T12:39:33.588Z,1.67
2019-02-05T12:42:04.292Z,2.10
2019-02-05T12:44:34.812Z,1.63
2019-02-05T12:47:05.547Z,1.50
2019-02-05T12:49:36.280Z,1.27
2019-02-05T12:52:06.793Z,1.60
2019-02-05T12:54:37.129Z,1.40
2019-02-05T12:57:07.655Z,1.17
2019-02-05T12:59:38.269Z,1.83
2019-02-05T13:02:09.184Z,1.40
2019-02-05T13:04:39.691Z,1.10
2019-02-05T13:07:10.163Z,1.43
2019-02-05T13:09:40.683Z,1.30
2019-02-05T13:12:11.308Z,1.50
2019-02-05T13:14:41.977Z,1.63
2019-02-05T13:17:13.635Z,1.80
2019-02-05T13:19:44.160Z,1.57
2019-02-05T13:22:14.520Z,1.70
2019-02-05T13:24:45.020Z,1.40
2019-02-05T13:27:15.666Z,1.90
2019-02-05T13:29:46.227Z,1.33
2019-02-05T13:32:16.527Z,1.50
2019-02-05T13:34:46.859Z,1.50
2019-02-05T13:37:17.188Z,1.00
2019-02-05T13:39:47.657Z,1.33
2019-02-05T13:42:18.255Z,1.00
2019-02-05T13:44:48.652Z,1.17
2019-02-05T13:47:19.051Z,0.97
2019-02-05T13:49:49.596Z,0.53
2019-02-05T13:52:20.452Z,0.87
2019-02-05T13:54:50.880Z,0.80
2019-02-05T13:57:22.040Z,0.70
2019-02-05T13:59:52.364Z,0.70
2019-02-05T14:02:23.217Z,0.70
2019-02-05T14:04:53.749Z,0.60
2019-02-05T14:07:24.541Z,0.80
2019-02-05T14:09:55.360Z,0.60
2019-02-05T14:12:26.005Z,0.60
2019-02-05T14:14:56.400Z,0.70
2019-02-05T14:17:26.976Z,0.60
2019-02-05T14:19:57.304Z,0.80
2019-02-05T14:22:27.649Z,1.00
2019-02-05T14:24:58.264Z,0.70
2019-02-05T14:27:29.851Z,0.90
2019-02-05T14:30:00.205Z,0.80
2019-02-05T14:32:30.939Z,0.80
2019-02-05T14:35:01.532Z,1.27
2019-02-05T14:37:31.800Z,0.83
2019-02-05T14:40:02.572Z,1.10
2019-02-05T14:42:34.368Z,0.83
2019-02-05T14:45:05.872Z,0.93
2019-02-05T14:47:41.028Z,0.80
2019-02-05T14:50:16.360Z,1.00
2019-02-05T14:52:48.521Z,0.90
2019-02-05T14:55:18.993Z,0.80
2019-02-05T14:57:49.466Z,0.80
2019-02-05T15:00:26.292Z,0.90
2019-02-05T15:02:57.063Z,1.40
2019-02-05T15:05:27.767Z,0.80
2019-02-05T15:07:59.325Z,1.03
2019-02-05T15:10:30.013Z,1.00
2019-02-05T15:13:00.872Z,0.70
2019-02-05T15:15:34.940Z,0.90
2019-02-05T15:18:06.571Z,1.03
2019-02-05T15:20:41.791Z,0.97
2019-02-05T15:23:12.360Z,0.90
2019-02-05T15:25:43.455Z,1.10
2019-02-05T15:28:14.095Z,0.97
2019-02-05T15:30:45.011Z,1.67
2019-02-05T15:33:41.940Z,1.30
2019-02-05T15:36:21.717Z,1.03
2019-02-05T15:38:52.217Z,1.03
2019-02-05T15:41:24.426Z,1.00
2019-02-05T15:43:54.931Z,1.07
2019-02-05T15:46:25.952Z,1.20
2019-02-05T15:48:56.424Z,1.10
2019-02-05T15:51:27.315Z,1.07
2019-02-05T15:53:57.961Z,1.00
2019-02-05T15:56:29.588Z,1.60
2019-02-05T15:59:01.196Z,1.00
2019-02-05T16:01:31.881Z,1.13
2019-02-05T16:04:02.523Z,1.10
2019-02-05T16:06:33.232Z,1.00
2019-02-05T16:16:14.826Z,1.03
2019-02-05T16:18:47.744Z,1.30
2019-02-05T16:21:18.496Z,9.93
2019-02-05T16:23:48.873Z,2.20
2019-02-05T16:26:20.518Z,1.73
2019-02-05T16:28:51.010Z,5.40
2019-02-05T16:31:21.893Z,6.77
2019-02-05T16:33:52.523Z,3.57
2019-02-05T16:36:22.964Z,8.60
2019-02-05T16:38:53.349Z,3.90
2019-02-05T16:41:23.692Z,11.63
2019-02-05T16:43:54.405Z,2.30
2019-02-05T16:46:24.748Z,1.80
2019-02-05T16:48:55.145Z,2.07
2019-02-05T16:54:51.062Z,1.60
2019-02-05T16:57:37.167Z,1.33
2019-02-05T17:00:13.894Z,1.40
2019-02-05T17:02:44.292Z,1.50
2019-02-05T17:05:15.920Z,1.40
2019-02-05T17:07:46.440Z,2.00
2019-02-05T17:10:19.255Z,2.13
2019-02-05T17:12:52.990Z,1.73
2019-02-05T17:15:23.662Z,2.40
2019-02-05T17:17:54.008Z,2.80
2019-02-05T17:20:28.956Z,5.13
2019-02-05T17:23:00.646Z,1.93
2019-02-05T17:25:35.859Z,1.80
2019-02-05T17:28:09.169Z,1.57
2019-02-05T17:30:40.436Z,1.83
2019-02-05T17:33:10.804Z,1.70
2019-02-05T17:35:41.260Z,1.90
2019-02-05T17:38:13.398Z,2.00
2019-02-05T17:40:44.411Z,1.70
2019-02-05T17:43:14.825Z,1.83
2019-02-05T17:45:45.576Z,2.13
2019-02-05T17:48:17.594Z,1.60
2019-02-05T17:50:48.023Z,2.60
2019-02-05T17:53:18.479Z,2.37
2019-02-05T17:55:48.787Z,1.90
2019-02-05T17:58:19.289Z,1.80
2019-02-05T18:00:52.304Z,1.80
2019-02-05T18:03:24.081Z,3.00
2019-02-05T18:05:54.812Z,2.83
2019-02-05T18:08:25.352Z,3.83
2019-02-05T18:10:55.688Z,2.40
2019-02-05T18:13:26.164Z,5.00
2019-02-05T18:15:56.736Z,3.73
2019-02-05T18:18:27.247Z,1.60
2019-02-05T18:20:57.721Z,1.83
2019-02-05T18:23:28.252Z,2.00
2019-02-05T18:25:58.623Z,2.10
2019-02-05T18:28:31.831Z,2.60
2019-02-05T18:31:03.449Z,2.47
2019-02-05T18:33:35.136Z,5.73
2019-02-05T18:36:06.320Z,3.23
2019-02-05T18:38:38.656Z,1.97
2019-02-05T18:41:09.212Z,2.67
2019-02-05T18:43:40.412Z,2.20
2019-02-05T18:46:12.834Z,2.30
2019-02-05T18:48:43.016Z,1.93
2019-02-05T18:51:13.552Z,2.10
2019-02-05T18:53:44.392Z,2.37
2019-02-05T18:56:14.884Z,2.20
2019-02-05T18:58:45.481Z,4.73
2019-02-05T19:01:17.010Z,2.60
2019-02-05T19:03:47.524Z,2.63
2019-02-05T19:06:17.996Z,3.30
2019-02-05T19:08:48.553Z,2.90
2019-02-05T19:11:18.932Z,4.93
2019-02-05T19:13:49.537Z,2.40
2019-02-05T19:16:20.083Z,3.33
2019-02-05T19:18:50.574Z,2.40
2019-02-05T19:21:20.960Z,3.67
2019-02-05T19:23:57.020Z,2.17
2019-02-05T19:26:33.572Z,1.90
2019-02-05T19:29:04.016Z,7.83
2019-02-05T19:31:37.488Z,2.23
2019-02-05T19:34:08.195Z,1.90
2019-02-05T19:36:39.444Z,1.70
2019-02-05T19:39:10.179Z,1.60
2019-02-05T19:41:40.501Z,1.97
2019-02-05T19:44:11.184Z,1.50
2019-02-05T19:47:00.550Z,1.50
2019-02-05T19:49:58.792Z,1.60
2019-02-05T19:52:29.497Z,1.50
2019-02-05T19:55:00.082Z,1.77
2019-02-05T19:57:30.420Z,1.50
2019-02-05T20:00:01.398Z,1.70
2019-02-05T20:02:31.896Z,1.50
2019-02-05T20:05:02.410Z,1.63
2019-02-05T20:07:32.900Z,1.77
2019-02-05T20:10:03.297Z,2.17
2019-02-05T20:12:34.648Z,1.87
2019-02-05T20:15:06.632Z,1.90
2019-02-05T20:17:37.132Z,1.67
2019-02-05T20:20:11.400Z,1.70
2019-02-05T20:22:41.864Z,1.80
2019-02-05T20:25:13.696Z,2.23
2019-02-05T20:27:44.036Z,1.93
2019-02-05T20:30:16.125Z,2.03
2019-02-05T20:32:47.515Z,2.10
2019-02-05T20:35:19.009Z,2.50
2019-02-05T20:37:50.425Z,3.13
2019-02-05T20:40:20.865Z,2.37
2019-02-05T20:42:51.524Z,6.23
2019-02-05T20:45:21.956Z,3.07
2019-02-05T20:47:55.803Z,2.63
2019-02-05T20:50:25.020Z,2.20
2019-02-05T20:52:55.716Z,2.77
2019-02-05T20:55:26.456Z,3.17
2019-02-05T20:57:56.792Z,4.47
2019-02-05T21:00:27.562Z,2.53
2019-02-05T21:02:58.044Z,2.30
2019-02-05T21:05:28.781Z,2.90
2019-02-05T21:07:59.612Z,2.23
2019-02-05T21:10:30.350Z,2.20
2019-02-05T21:13:00.997Z,2.37
2019-02-05T21:15:32.615Z,2.50
2019-02-05T21:18:03.272Z,2.57
2019-02-05T21:20:34.226Z,2.73
2019-02-05T21:23:05.104Z,2.17
2019-02-05T21:25:35.692Z,2.03
2019-02-05T21:28:06.625Z,2.67
2019-02-05T21:30:37.104Z,2.60
2019-02-05T21:33:07.716Z,3.00
2019-02-05T21:35:38.216Z,2.47
2019-02-05T21:38:08.922Z,1.90
2019-02-05T21:40:39.414Z,2.50
2019-02-05T21:43:09.872Z,2.40
2019-02-05T21:45:40.413Z,2.30
2019-02-05T21:48:11.452Z,2.13
2019-02-05T21:50:42.176Z,2.47
2019-02-05T21:53:12.543Z,3.00
2019-02-05T21:55:43.288Z,2.40
2019-02-05T21:58:13.710Z,2.30
2019-02-05T22:00:44.411Z,2.33
2019-02-05T22:03:14.800Z,2.30
2019-02-05T22:05:46.072Z,2.43
2019-02-05T22:08:16.577Z,2.57
2019-02-05T22:10:48.966Z,2.43
2019-02-05T22:13:19.231Z,2.80
2019-02-05T22:15:49.596Z,2.20
2019-02-05T22:18:20.228Z,2.50
2019-02-05T22:20:50.570Z,2.53
2019-02-05T22:23:21.448Z,1.67
2019-02-05T22:25:51.917Z,2.07
2019-02-05T22:28:22.625Z,2.13
2019-02-05T22:30:53.288Z,2.27
2019-02-05T22:33:24.118Z,2.10
2019-02-05T22:35:54.880Z,1.90
2019-02-05T22:38:26.515Z,2.20
2019-02-05T22:40:56.892Z,2.30
2019-02-05T22:43:27.402Z,2.30
2019-02-05T22:45:57.756Z,2.17
2019-02-05T22:48:28.541Z,2.00
2019-02-05T22:50:58.852Z,2.03
2019-02-05T22:53:29.724Z,2.30
2019-02-05T22:56:00.053Z,2.50
2019-02-05T22:58:30.608Z,2.10
2019-02-05T23:01:42.922Z,2.30
2019-02-05T23:04:34.008Z,2.37
2019-02-05T23:07:19.392Z,2.20
2019-02-05T23:10:16.912Z,2.40
2019-02-05T23:12:56.714Z,2.17
2019-02-05T23:15:29.127Z,2.80
2019-02-05T23:17:59.519Z,2.10
2019-02-05T23:20:30.764Z,2.00
2019-02-05T23:23:01.173Z,2.00
2019-02-05T23:25:31.588Z,2.00
2019-02-05T23:28:02.033Z,2.37
2019-02-05T23:30:32.416Z,2.20
2019-02-05T23:33:02.970Z,2.60
2019-02-05T23:35:36.000Z,3.00
2019-02-05T23:38:06.641Z,2.33
2019-02-05T23:40:37.029Z,2.40
2019-02-05T23:43:07.553Z,1.77
2019-02-05T23:45:37.920Z,2.13
2019-02-05T23:48:10.452Z,2.50
2019-02-05T23:50:43.236Z,2.80
2019-02-05T23:53:13.720Z,2.13
2019-02-05T23:55:44.086Z,2.20
2019-02-05T23:58:14.505Z,1.70
